createdAt,value
2019-05-11T00:00:56.845Z,47.16
2019-05-11T00:03:27.314Z,47.20
2019-05-11T00:05:57.586Z,47.25
2019-05-11T00:08:32.829Z,47.31
2019-05-11T00:11:03.200Z,47.36
2019-05-11T00:13:33.554Z,47.37
2019-05-11T00:16:05.198Z,47.41
2019-05-11T00:18:35.454Z,47.46
2019-05-11T00:21:05.781Z,47.48
2019-05-11T00:23:36.134Z,47.53
2019-05-11T00:26:06.416Z,47.56
2019-05-11T00:28:36.719Z,47.63
2019-05-11T00:31:07.055Z,47.67
2019-05-11T00:33:37.331Z,47.71
2019-05-11T00:36:07.933Z,47.74
2019-05-11T00:38:38.230Z,47.77
2019-05-11T00:41:08.927Z,47.81
2019-05-11T00:43:39.230Z,47.85
2019-05-11T00:46:11.854Z,47.88
2019-05-11T00:48:43.527Z,47.94
2019-05-11T00:51:13.845Z,47.98
2019-05-11T00:53:50.145Z,48.03
2019-05-11T00:56:21.689Z,48.07
2019-05-11T00:58:53.566Z,48.17
2019-05-11T01:01:24.218Z,48.23
2019-05-11T01:03:54.523Z,48.33
2019-05-11T01:06:24.846Z,48.41
2019-05-11T01:08:55.283Z,48.47
2019-05-11T01:11:25.575Z,48.53
2019-05-11T01:13:56.461Z,48.62
2019-05-11T01:16:27.231Z,48.72
2019-05-11T01:18:57.524Z,48.79
2019-05-11T01:21:27.903Z,48.87
2019-05-11T01:23:58.384Z,48.98
2019-05-11T01:26:28.673Z,49.05
2019-05-11T01:28:59.864Z,49.11
2019-05-11T01:31:30.998Z,49.18
2019-05-11T01:34:03.016Z,49.23
2019-05-11T01:36:35.017Z,49.33
2019-05-11T01:39:10.946Z,49.39
2019-05-11T01:41:42.678Z,49.47
2019-05-11T01:44:15.661Z,49.56
2019-05-11T01:46:46.014Z,49.63
2019-05-11T01:49:16.253Z,49.71
2019-05-11T01:51:46.884Z,49.80
2019-05-11T01:54:18.223Z,49.86
2019-05-11T01:56:49.159Z,49.94
2019-05-11T01:59:19.488Z,49.99
2019-05-11T02:01:49.791Z,50.06
2019-05-11T02:04:20.086Z,50.13
2019-05-11T02:06:53.629Z,50.20
2019-05-11T02:09:23.890Z,50.22
2019-05-11T02:11:55.626Z,50.31
2019-05-11T02:14:26.321Z,50.35
2019-05-11T02:16:56.613Z,50.40
2019-05-11T02:19:29.975Z,50.45
2019-05-11T02:22:00.252Z,50.48
2019-05-11T02:24:30.854Z,50.55
2019-05-11T02:27:01.156Z,50.61
2019-05-11T02:29:31.449Z,50.65
2019-05-11T02:32:03.169Z,50.73
2019-05-11T02:34:33.481Z,50.79
2019-05-11T02:37:03.816Z,50.84
2019-05-11T02:39:35.007Z,50.89
2019-05-11T02:42:05.331Z,50.97
2019-05-11T02:44:41.865Z,51.03
2019-05-11T02:47:14.222Z,51.06
2019-05-11T02:49:45.225Z,51.13
2019-05-11T02:52:16.363Z,51.20
2019-05-11T02:54:47.498Z,51.25
2019-05-11T02:57:18.643Z,51.29
2019-05-11T02:59:49.092Z,51.33
2019-05-11T03:02:19.373Z,51.42
2019-05-11T03:04:49.924Z,51.45
2019-05-11T03:07:21.272Z,51.51
2019-05-11T03:09:51.625Z,51.60
2019-05-11T03:12:21.885Z,51.63
2019-05-11T03:14:53.318Z,51.71
2019-05-11T03:17:28.741Z,51.75
2019-05-11T03:19:59.653Z,51.79
2019-05-11T03:22:29.922Z,51.85
2019-05-11T03:25:00.571Z,51.92
2019-05-11T03:27:30.928Z,51.96
2019-05-11T03:30:02.170Z,52.00
2019-05-11T03:32:32.843Z,52.07
2019-05-11T03:35:03.134Z,52.12
2019-05-11T03:37:33.430Z,52.21
2019-05-11T03:40:06.235Z,52.26
2019-05-11T03:42:38.503Z,52.31
2019-05-11T03:45:09.969Z,52.39
2019-05-11T03:47:40.354Z,52.43
2019-05-11T03:50:11.292Z,52.50
2019-05-11T03:52:41.623Z,52.56
2019-05-11T03:55:12.192Z,52.62
2019-05-11T03:57:42.905Z,52.65
2019-05-11T04:00:13.438Z,52.72
2019-05-11T04:02:43.873Z,52.75
2019-05-11T04:05:14.561Z,52.81
2019-05-11T04:07:44.884Z,52.90
2019-05-11T04:10:16.379Z,52.96
2019-05-11T04:12:48.480Z,52.98
2019-05-11T04:15:19.526Z,53.03
2019-05-11T04:17:50.875Z,53.06
2019-05-11T04:20:21.547Z,53.13
2019-05-11T04:22:51.840Z,53.22
2019-05-11T04:25:23.797Z,53.27
2019-05-11T04:27:54.171Z,53.32
2019-05-11T04:30:24.436Z,53.34
2019-05-11T04:32:54.958Z,53.39
2019-05-11T04:35:25.646Z,53.44
2019-05-11T04:37:55.969Z,53.53
2019-05-11T04:40:26.243Z,53.57
2019-05-11T04:42:56.651Z,53.65
2019-05-11T04:45:26.918Z,53.73
2019-05-11T04:47:58.426Z,53.79
2019-05-11T04:50:28.700Z,53.84
2019-05-11T04:52:59.006Z,53.89
2019-05-11T04:55:29.335Z,53.96
2019-05-11T04:58:00.076Z,54.01
2019-05-11T05:00:50.721Z,54.09
2019-05-11T05:03:21.294Z,54.15
2019-05-11T05:05:52.086Z,54.20
2019-05-11T05:08:26.706Z,54.25
2019-05-11T05:10:58.676Z,54.32
2019-05-11T05:13:29.520Z,54.38
2019-05-11T05:15:59.464Z,54.43
2019-05-11T05:18:29.828Z,54.51
2019-05-11T05:21:00.108Z,54.58
2019-05-11T05:23:31.552Z,54.66
2019-05-11T05:26:02.350Z,54.72
2019-05-11T05:28:33.328Z,54.83
2019-05-11T05:31:06.525Z,54.92
2019-05-11T05:33:36.816Z,55.04
2019-05-11T05:36:07.687Z,55.15
2019-05-11T05:38:38.131Z,55.22
2019-05-11T05:41:08.454Z,55.34
2019-05-11T05:43:39.180Z,55.47
2019-05-11T05:46:10.568Z,55.56
2019-05-11T05:48:40.889Z,55.64
2019-05-11T05:51:11.514Z,55.73
2019-05-11T05:53:44.989Z,55.90
2019-05-11T05:56:18.346Z,56.14
2019-05-11T05:58:50.364Z,56.36
2019-05-11T06:01:23.002Z,56.57
2019-05-11T06:03:53.359Z,56.71
2019-05-11T06:06:23.664Z,56.80
2019-05-11T06:08:54.004Z,56.81
2019-05-11T06:11:25.105Z,56.84
2019-05-11T06:13:55.540Z,56.84
2019-05-11T06:16:25.872Z,56.88
2019-05-11T06:18:56.282Z,56.89
2019-05-11T06:21:26.693Z,56.99
2019-05-11T06:23:57.061Z,56.98
2019-05-11T06:26:29.717Z,57.08
2019-05-11T06:29:00.070Z,57.19
2019-05-11T06:31:32.047Z,57.38
2019-05-11T06:34:02.565Z,57.54
2019-05-11T06:36:37.184Z,57.65
2019-05-11T06:39:11.825Z,57.78
2019-05-11T06:41:42.921Z,57.84
2019-05-11T06:44:13.243Z,57.88
2019-05-11T06:46:43.583Z,57.83
2019-05-11T06:49:13.904Z,57.73
2019-05-11T06:51:44.694Z,57.80
2019-05-11T06:54:18.324Z,57.90
2019-05-11T06:56:51.048Z,57.89
2019-05-11T06:59:23.973Z,57.95
2019-05-11T07:01:56.007Z,58.01
2019-05-11T07:04:26.365Z,58.14
2019-05-11T07:06:57.068Z,58.20
2019-05-11T07:09:27.596Z,58.25
2019-05-11T07:11:57.960Z,58.34
2019-05-11T07:14:28.609Z,58.36
2019-05-11T07:17:00.507Z,58.34
2019-05-11T07:19:37.649Z,58.36
2019-05-11T07:22:08.366Z,58.43
2019-05-11T07:24:39.238Z,58.50
2019-05-11T07:27:09.689Z,58.41
2019-05-11T07:29:40.018Z,58.39
2019-05-11T07:32:21.934Z,58.36
2019-05-11T07:34:42.755Z,58.36
2019-05-11T07:37:13.413Z,58.38
2019-05-11T07:39:43.726Z,58.33
2019-05-11T07:42:14.112Z,58.39
2019-05-11T07:44:44.514Z,58.29
2019-05-11T07:47:15.013Z,58.30
2019-05-11T07:49:45.401Z,58.29
2019-05-11T07:52:18.018Z,58.29
2019-05-11T07:54:52.523Z,58.35
2019-05-11T07:57:19.749Z,58.16
2019-05-11T07:59:51.254Z,58.16
2019-05-11T08:02:21.554Z,58.08
2019-05-11T08:04:51.858Z,58.01
2019-05-11T08:07:22.737Z,57.96
2019-05-11T08:09:53.031Z,57.80
2019-05-11T08:12:23.559Z,57.73
2019-05-11T08:15:02.629Z,57.73
2019-05-11T08:17:28.488Z,57.59
2019-05-11T08:19:59.383Z,57.43
2019-05-11T08:22:32.592Z,57.42
2019-05-11T08:25:09.142Z,57.42
2019-05-11T08:27:37.892Z,57.28
2019-05-11T08:30:09.941Z,57.35
2019-05-11T08:32:43.068Z,57.22
2019-05-11T08:35:13.703Z,57.32
2019-05-11T08:37:44.331Z,57.16
2019-05-11T08:40:18.271Z,57.12
2019-05-11T08:42:49.125Z,57.05
2019-05-11T08:45:24.473Z,57.03
2019-05-11T08:47:52.921Z,56.93
2019-05-11T08:50:24.457Z,56.73
2019-05-11T08:52:54.829Z,56.83
2019-05-11T08:55:25.540Z,56.79
2019-05-11T08:57:58.370Z,56.75
2019-05-11T09:00:29.368Z,56.53
2019-05-11T09:02:59.723Z,56.46
2019-05-11T09:05:30.073Z,55.94
2019-05-11T09:08:02.423Z,55.94
2019-05-11T09:10:36.956Z,56.24
2019-05-11T09:13:10.406Z,56.11
2019-05-11T09:15:40.994Z,56.09
2019-05-11T09:18:11.422Z,55.88
2019-05-11T09:20:42.175Z,55.78
2019-05-11T09:23:12.478Z,55.53
2019-05-11T09:25:43.223Z,55.38
2019-05-11T09:28:18.294Z,55.23
2019-05-11T09:30:48.720Z,55.09
2019-05-11T09:33:21.104Z,54.97
2019-05-11T09:35:53.528Z,54.91
2019-05-11T09:38:24.150Z,54.78
2019-05-11T09:40:54.633Z,54.72
2019-05-11T09:43:28.335Z,54.66
2019-05-11T09:45:58.881Z,54.57
2019-05-11T09:48:31.523Z,54.39
2019-05-11T09:51:02.033Z,54.25
2019-05-11T09:53:32.773Z,54.15
2019-05-11T09:56:03.615Z,54.03
2019-05-11T09:58:35.057Z,53.99
2019-05-11T10:01:08.809Z,53.92
2019-05-11T10:03:39.725Z,53.82
2019-05-11T10:06:10.055Z,53.75
2019-05-11T10:08:45.508Z,53.69
2019-05-11T10:11:15.881Z,53.64
2019-05-11T10:13:47.739Z,53.62
2019-05-11T10:16:18.827Z,53.51
2019-05-11T10:18:49.632Z,53.38
2019-05-11T10:21:20.414Z,53.48
2019-05-11T10:23:54.665Z,53.59
2019-05-11T10:26:24.951Z,53.48
2019-05-11T10:28:58.553Z,53.46
2019-05-11T10:31:31.972Z,53.43
2019-05-11T10:34:04.504Z,53.58
2019-05-11T10:36:34.885Z,53.70
2019-05-11T10:39:07.988Z,53.58
2019-05-11T10:41:38.847Z,53.42
2019-05-11T10:44:09.679Z,53.18
2019-05-11T10:46:40.006Z,53.10
2019-05-11T10:49:10.626Z,52.87
2019-05-11T10:51:44.606Z,52.93
2019-05-11T10:54:15.382Z,52.85
2019-05-11T10:56:48.020Z,52.80
2019-05-11T10:59:18.782Z,52.59
2019-05-11T11:01:49.847Z,52.52
2019-05-11T11:04:20.208Z,52.41
2019-05-11T11:06:55.526Z,52.28
2019-05-11T11:09:28.147Z,52.21
2019-05-11T11:11:58.760Z,52.07
2019-05-11T11:14:29.393Z,51.99
2019-05-11T11:17:00.052Z,51.94
2019-05-11T11:19:30.401Z,51.87
2019-05-11T11:22:34.988Z,51.83
2019-05-11T11:24:40.402Z,51.77
2019-05-11T11:27:10.942Z,51.70
2019-05-11T11:29:42.541Z,51.58
2019-05-11T11:32:12.855Z,51.51
2019-05-11T11:34:44.510Z,51.45
2019-05-11T11:37:17.527Z,51.37
2019-05-11T11:39:48.250Z,51.34
2019-05-11T11:42:19.686Z,51.28
2019-05-11T11:44:50.476Z,51.22
2019-05-11T11:47:23.942Z,51.14
2019-05-11T11:49:54.485Z,51.10
2019-05-11T11:52:27.728Z,50.99
2019-05-11T11:54:58.675Z,50.95
2019-05-11T11:57:30.206Z,50.89
2019-05-11T12:00:00.615Z,50.84
2019-05-11T12:02:31.627Z,50.79
2019-05-11T12:05:01.975Z,50.73
2019-05-11T12:07:35.096Z,50.67
2019-05-11T12:10:07.627Z,50.63
2019-05-11T12:12:38.959Z,50.62
2019-05-11T12:15:14.689Z,50.59
2019-05-11T12:17:45.517Z,50.55
2019-05-11T12:20:18.072Z,50.55
2019-05-11T12:22:48.682Z,50.53
2019-05-11T12:25:19.519Z,50.48
2019-05-11T12:27:49.980Z,50.46
2019-05-11T12:30:20.718Z,50.42
2019-05-11T12:32:51.347Z,50.41
2019-05-11T12:35:21.477Z,50.42
2019-05-11T12:37:53.213Z,50.39
2019-05-11T12:40:23.533Z,50.34
2019-05-11T12:42:53.840Z,50.33
2019-05-11T12:45:25.254Z,50.28
2019-05-11T12:47:58.667Z,50.25
2019-05-11T12:50:29.047Z,50.22
2019-05-11T12:53:00.159Z,50.19
2019-05-11T12:55:34.618Z,50.16
2019-05-11T12:58:05.619Z,50.14
2019-05-11T13:00:36.051Z,50.11
2019-05-11T13:03:08.042Z,50.07
2019-05-11T13:05:40.776Z,50.04
2019-05-11T13:08:11.629Z,50.01
2019-05-11T13:10:48.013Z,50.01
2019-05-11T13:13:19.998Z,50.01
2019-05-11T13:15:50.308Z,50.03
2019-05-11T13:18:20.614Z,50.02
2019-05-11T13:20:50.905Z,50.05
2019-05-11T13:23:23.482Z,50.01
2019-05-11T13:25:53.878Z,50.00
2019-05-11T13:28:24.201Z,50.00
2019-05-11T13:30:54.877Z,49.96
2019-05-11T13:33:28.050Z,49.95
2019-05-11T13:35:58.102Z,49.96
2019-05-11T13:38:29.679Z,49.96
2019-05-11T13:40:59.995Z,49.94
2019-05-11T13:43:33.415Z,49.93
2019-05-11T13:46:05.208Z,49.90
2019-05-11T13:48:38.634Z,49.90
2019-05-11T13:51:08.966Z,49.91
2019-05-11T13:53:39.292Z,49.89
2019-05-11T13:56:12.580Z,49.85
2019-05-11T13:58:42.924Z,49.85
2019-05-11T14:01:13.327Z,49.83
2019-05-11T14:03:44.014Z,49.79
2019-05-11T14:06:18.415Z,49.78
2019-05-11T14:08:48.375Z,49.71
2019-05-11T14:11:19.648Z,49.70
2019-05-11T14:13:53.399Z,49.72
2019-05-11T14:16:27.727Z,49.64
2019-05-11T14:18:58.067Z,49.59
2019-05-11T14:21:28.692Z,49.52
2019-05-11T14:23:59.271Z,49.46
2019-05-11T14:26:29.945Z,49.43
2019-05-11T14:29:00.228Z,49.37
2019-05-11T14:31:32.412Z,49.33
2019-05-11T14:34:03.019Z,49.29
2019-05-11T14:36:33.687Z,49.24
2019-05-11T14:39:08.413Z,49.22
2019-05-11T14:41:38.497Z,49.17
2019-05-11T14:44:09.136Z,49.15
2019-05-11T14:46:40.892Z,49.15
2019-05-11T14:49:11.173Z,49.14
2019-05-11T14:51:42.979Z,49.17
2019-05-11T14:54:13.611Z,49.18
2019-05-11T14:56:45.384Z,49.19
2019-05-11T14:59:18.289Z,49.17
2019-05-11T15:01:52.152Z,49.17
2019-05-11T15:04:22.761Z,49.16
2019-05-11T15:06:53.494Z,49.16
2019-05-11T15:09:24.260Z,49.16
2019-05-11T15:11:54.867Z,49.16
2019-05-11T15:14:28.674Z,49.15
2019-05-11T15:17:01.223Z,49.19
2019-05-11T15:19:31.508Z,49.21
2019-05-11T15:22:02.171Z,49.23
2019-05-11T15:24:34.162Z,49.25
2019-05-11T15:27:08.014Z,49.29
2019-05-11T15:29:37.860Z,49.30
2019-05-11T15:32:08.597Z,49.33
2019-05-11T15:34:38.888Z,49.37
2019-05-11T15:37:10.072Z,49.38
2019-05-11T15:39:40.756Z,49.41
2019-05-11T15:42:16.913Z,49.44
2019-05-11T15:44:45.065Z,49.46
2019-05-11T15:47:15.834Z,49.47
2019-05-11T15:49:48.458Z,49.52
2019-05-11T15:52:18.995Z,49.57
2019-05-11T15:54:49.335Z,49.59
2019-05-11T15:57:19.616Z,49.66
2019-05-11T15:59:50.301Z,49.66
2019-05-11T16:02:21.256Z,49.72
2019-05-11T16:04:51.549Z,49.74
2019-05-11T16:07:21.904Z,49.79
2019-05-11T16:09:53.366Z,49.83
2019-05-11T16:12:25.210Z,49.87
2019-05-11T16:14:57.593Z,49.91
2019-05-11T16:17:28.939Z,49.95
2019-05-11T16:20:00.870Z,50.02
2019-05-11T16:22:31.763Z,50.08
2019-05-11T16:25:02.091Z,50.14
2019-05-11T16:27:33.421Z,50.20
2019-05-11T16:30:03.738Z,50.23
2019-05-11T16:32:34.702Z,50.28
2019-05-11T16:35:08.783Z,50.31
2019-05-11T16:37:38.911Z,50.39
2019-05-11T16:40:10.061Z,50.43
2019-05-11T16:42:40.879Z,50.48
2019-05-11T16:45:11.872Z,50.52
2019-05-11T16:47:42.161Z,50.58
2019-05-11T16:50:12.968Z,50.61
2019-05-11T16:52:43.354Z,50.67
2019-05-11T16:55:13.774Z,50.72
2019-05-11T16:57:48.034Z,50.77
2019-05-11T17:00:17.922Z,50.83
2019-05-11T17:02:49.976Z,50.88
2019-05-11T17:05:26.371Z,50.94
2019-05-11T17:07:52.379Z,50.96
2019-05-11T17:10:33.055Z,51.02
2019-05-11T17:13:03.368Z,51.07
2019-05-11T17:15:33.683Z,51.13
2019-05-11T17:18:03.976Z,51.19
2019-05-11T17:20:35.920Z,51.23
2019-05-11T17:23:06.573Z,51.28
2019-05-11T17:25:37.907Z,51.35
2019-05-11T17:28:10.252Z,51.39
2019-05-11T17:30:43.349Z,51.44
2019-05-11T17:33:13.737Z,51.51
2019-05-11T17:35:47.891Z,51.56
2019-05-11T17:38:18.422Z,51.61
2019-05-11T17:40:48.956Z,51.67
2019-05-11T17:43:20.758Z,51.73
2019-05-11T17:45:51.314Z,51.82
2019-05-11T17:48:21.725Z,51.90
2019-05-11T17:50:53.202Z,51.96
2019-05-11T17:53:23.655Z,52.00
2019-05-11T17:55:54.357Z,52.03
2019-05-11T17:58:25.046Z,52.10
2019-05-11T18:00:55.363Z,52.17
2019-05-11T18:03:27.708Z,52.23
2019-05-11T18:05:59.078Z,52.25
2019-05-11T18:08:30.917Z,52.31
2019-05-11T18:11:03.114Z,52.38
2019-05-11T18:13:33.421Z,52.45
2019-05-11T18:16:05.233Z,52.50
2019-05-11T18:18:38.722Z,52.55
2019-05-11T18:21:09.017Z,52.62
2019-05-11T18:23:39.908Z,52.68
2019-05-11T18:26:10.245Z,52.71
2019-05-11T18:28:40.655Z,52.77
2019-05-11T18:31:11.056Z,52.82
2019-05-11T18:33:41.405Z,52.90
2019-05-11T18:36:14.015Z,52.94
2019-05-11T18:38:44.631Z,52.98
2019-05-11T18:41:17.317Z,53.03
2019-05-11T18:43:48.321Z,53.07
2019-05-11T18:46:20.589Z,53.11
2019-05-11T18:48:52.608Z,53.15
2019-05-11T18:51:23.086Z,53.19
2019-05-11T18:53:53.446Z,53.22
2019-05-11T18:56:23.889Z,53.23
2019-05-11T18:58:54.316Z,53.30
2019-05-11T19:01:24.700Z,53.35
2019-05-11T19:03:55.416Z,53.38
2019-05-11T19:06:28.575Z,53.43
2019-05-11T19:08:59.320Z,53.47
2019-05-11T19:11:29.730Z,53.53
2019-05-11T19:14:01.794Z,53.54
2019-05-11T19:16:33.704Z,53.61
2019-05-11T19:19:04.285Z,53.66
2019-05-11T19:21:34.726Z,53.74
2019-05-11T19:24:06.184Z,53.81
2019-05-11T19:26:41.110Z,53.86
2019-05-11T19:29:14.135Z,53.93
2019-05-11T19:31:44.676Z,54.01
2019-05-11T19:34:23.530Z,54.06
2019-05-11T19:36:53.957Z,54.13
2019-05-11T19:39:24.319Z,54.17
2019-05-11T19:41:58.096Z,54.26
2019-05-11T19:44:30.408Z,54.31
2019-05-11T19:47:00.700Z,54.34
2019-05-11T19:49:32.502Z,54.40
2019-05-11T19:52:02.859Z,54.46
2019-05-11T19:54:35.114Z,54.50
2019-05-11T19:57:08.357Z,54.56
2019-05-11T19:59:38.846Z,54.63
2019-05-11T20:02:09.855Z,54.68
2019-05-11T20:04:40.531Z,54.73
2019-05-11T20:07:12.574Z,54.77
2019-05-11T20:09:45.894Z,54.84
2019-05-11T20:12:18.015Z,54.89
2019-05-11T20:14:50.446Z,54.94
2019-05-11T20:17:22.780Z,54.99
2019-05-11T20:19:53.203Z,55.04
2019-05-11T20:22:24.901Z,55.10
2019-05-11T20:24:55.517Z,55.18
2019-05-11T20:27:28.266Z,55.23
2019-05-11T20:29:58.630Z,55.28
2019-05-11T20:32:29.015Z,55.35
2019-05-11T20:34:59.316Z,55.38
2019-05-11T20:37:29.613Z,55.43
2019-05-11T20:40:00.559Z,55.49
2019-05-11T20:42:34.342Z,55.55
2019-05-11T20:45:07.598Z,55.59
2019-05-11T20:47:43.911Z,55.65
2019-05-11T20:50:15.522Z,55.71
2019-05-11T20:52:48.017Z,55.75
2019-05-11T20:55:18.624Z,55.81
2019-05-11T20:57:49.124Z,55.89
2019-05-11T21:00:20.345Z,55.94
2019-05-11T21:02:51.409Z,56.01
2019-05-11T21:05:27.195Z,56.05
2019-05-11T21:08:00.013Z,56.10
2019-05-11T21:10:31.423Z,56.13
2019-05-11T21:13:04.736Z,56.18
2019-05-11T21:15:38.324Z,56.23
2019-05-11T21:18:11.573Z,56.28
2019-05-11T21:20:41.987Z,56.33
2019-05-11T21:23:13.178Z,56.34
2019-05-11T21:25:44.200Z,56.37
2019-05-11T21:28:16.769Z,56.42
2019-05-11T21:30:50.226Z,56.48
2019-05-11T21:33:20.624Z,56.53
2019-05-11T21:35:50.959Z,56.55
2019-05-11T21:38:21.591Z,56.61
2019-05-11T21:40:52.028Z,56.64
2019-05-11T21:43:22.439Z,56.69
2019-05-11T21:45:53.111Z,56.72
2019-05-11T21:48:23.502Z,56.79
2019-05-11T21:50:54.487Z,56.87
2019-05-11T21:53:25.217Z,56.93
2019-05-11T21:55:55.725Z,56.96
2019-05-11T21:58:28.541Z,57.01
2019-05-11T22:00:59.805Z,57.04
2019-05-11T22:03:31.099Z,57.09
2019-05-11T22:06:02.575Z,57.14
2019-05-11T22:08:32.878Z,57.19
2019-05-11T22:11:03.171Z,57.23
2019-05-11T22:13:35.064Z,57.28
2019-05-11T22:16:05.681Z,57.31
2019-05-11T22:18:38.059Z,57.39
2019-05-11T22:21:08.704Z,57.45
2019-05-11T22:23:42.834Z,57.50
2019-05-11T22:26:14.661Z,57.53
2019-05-11T22:28:47.637Z,57.57
2019-05-11T22:31:19.444Z,57.62
2019-05-11T22:33:51.281Z,57.68
2019-05-11T22:36:21.873Z,57.71
2019-05-11T22:38:53.998Z,57.75
2019-05-11T22:41:24.632Z,57.80
2019-05-11T22:43:56.215Z,57.85
2019-05-11T22:46:28.078Z,57.90
2019-05-11T22:48:59.985Z,57.96
2019-05-11T22:51:30.572Z,57.99
2019-05-11T22:54:01.005Z,58.02
2019-05-11T22:56:33.099Z,58.09
2019-05-11T22:59:04.110Z,58.15
2019-05-11T23:01:37.938Z,58.21
2019-05-11T23:04:08.846Z,58.26
2019-05-11T23:06:40.590Z,58.32
2019-05-11T23:09:12.866Z,58.34
2019-05-11T23:11:43.051Z,58.39
2019-05-11T23:14:17.731Z,58.43
2019-05-11T23:16:49.917Z,58.48
2019-05-11T23:19:20.709Z,58.52
2019-05-11T23:21:51.309Z,58.54
2019-05-11T23:24:21.569Z,58.58
2019-05-11T23:26:52.946Z,58.61
2019-05-11T23:29:23.702Z,58.66
2019-05-11T23:31:53.989Z,58.72
2019-05-11T23:34:24.579Z,58.75
2019-05-11T23:36:58.986Z,58.78
2019-05-11T23:39:28.828Z,58.79
2019-05-11T23:41:59.201Z,58.83
2019-05-11T23:44:29.504Z,58.86
2019-05-11T23:46:59.792Z,58.89
2019-05-11T23:49:31.106Z,58.94
2019-05-11T23:52:01.602Z,58.99
2019-05-11T23:54:32.266Z,59.02
2019-05-11T23:57:02.576Z,59.05
2019-05-11T23:59:34.229Z,59.06
